Time;durP1;ratioP1;P1;durP2;ratioP2;P2;SDS_P1;SDS_P2;PMS_P1;PMS_P2;Temp;Humidity;BMP_temperature;BMP_pressure;BME280_temperature;BME280_humidity;BME280_pressure;Samples;Min_cycle;Max_cycle;Signal;HPM_P1;HPM_P2
2023/01/18 00:01:08;;;;;;;752.65;690.25;;;-3.30;99.90;;;;;;5000008;28;20219;-79
2023/01/18 00:03:37;;;;;;;756.25;693.35;;;-3.10;99.90;;;;;;5001083;28;20198;-80
2023/01/18 00:06:05;;;;;;;741.55;679.60;;;-3.10;99.90;;;;;;4999845;28;20222;-80
2023/01/18 00:08:33;;;;;;;739.75;680.72;;;-3.10;99.90;;;;;;5000627;28;20205;-80
2023/01/18 00:11:04;;;;;;;764.05;700.15;;;-3.20;99.90;;;;;;4999397;28;20223;-80
2023/01/18 00:13:32;;;;;;;738.65;679.15;;;-3.30;99.90;;;;;;5000088;28;20199;-80
2023/01/18 00:16:03;;;;;;;738.53;679.65;;;-3.60;99.90;;;;;;4999953;28;20209;-80
2023/01/18 00:18:30;;;;;;;773.50;714.50;;;-3.80;99.90;;;;;;4999652;28;20664;-80
2023/01/18 00:21:00;;;;;;;760.17;701.78;;;-3.60;99.90;;;;;;5000012;28;20215;-79
2023/01/18 00:23:27;;;;;;;769.42;709.90;;;-3.60;99.90;;;;;;4999780;28;20625;-80
2023/01/18 00:25:54;;;;;;;775.00;714.05;;;-3.40;99.90;;;;;;4999520;28;20237;-80
2023/01/18 00:28:21;;;;;;;768.70;709.30;;;-3.20;99.90;;;;;;4998850;28;20198;-81
2023/01/18 00:30:49;;;;;;;733.70;676.20;;;-3.30;99.90;;;;;;4999746;28;20223;-80
2023/01/18 00:33:16;;;;;;;721.17;663.05;;;-3.10;99.90;;;;;;4999538;28;20569;-80
2023/01/18 00:35:43;;;;;;;717.40;660.25;;;-3.20;99.90;;;;;;4999157;28;20198;-81
2023/01/18 00:38:10;;;;;;;731.80;675.40;;;-3.30;99.90;;;;;;4999344;28;20206;-81
2023/01/18 00:40:37;;;;;;;738.90;679.60;;;-3.50;99.90;;;;;;4998733;28;20306;-80
2023/01/18 00:45:49;;;;;;;716.50;659.90;;;-3.50;99.90;;;;;;4998606;28;20226;-80
2023/01/18 00:48:16;;;;;;;721.33;665.20;;;-4.00;99.90;;;;;;4998610;28;20665;-80
2023/01/18 00:50:44;;;;;;;721.53;665.75;;;-3.80;99.90;;;;;;4998376;28;20211;-80
2023/01/18 00:53:10;;;;;;;722.60;665.35;;;-3.90;99.90;;;;;;4999308;28;20210;-80
2023/01/18 00:55:37;;;;;;;744.67;685.33;;;-3.90;99.90;;;;;;4998195;28;20559;-80
2023/01/18 00:58:04;;;;;;;740.17;682.70;;;-3.80;99.90;;;;;;4999090;28;20203;-80
2023/01/18 01:00:31;;;;;;;768.47;710.95;;;-3.80;99.90;;;;;;4999306;28;20226;-80
2023/01/18 01:02:59;;;;;;;730.35;673.53;;;-3.80;99.90;;;;;;4998277;28;20234;-80
2023/01/18 01:08:16;;;;;;;755.30;697.92;;;-3.90;99.90;;;;;;4998518;28;20513;-80
2023/01/18 01:10:45;;;;;;;710.00;653.40;;;-3.90;99.90;;;;;;4998509;28;20265;-80
2023/01/18 01:26:55;;;;;;;728.67;671.63;;;-3.80;99.90;;;;;;4997515;28;20226;-80
2023/01/18 01:29:22;;;;;;;716.03;659.58;;;-3.70;99.90;;;;;;4998058;28;20254;-80
2023/01/18 01:31:48;;;;;;;717.45;659.88;;;-3.90;99.90;;;;;;4997692;28;20215;-80
2023/01/18 01:34:17;;;;;;;713.20;657.60;;;-3.80;99.90;;;;;;4998829;28;20202;-80
2023/01/18 01:36:43;;;;;;;710.55;655.00;;;-3.90;99.90;;;;;;4998106;28;20191;-80
2023/01/18 01:39:10;;;;;;;732.58;675.55;;;-4.00;99.90;;;;;;4998081;28;20199;-80
2023/01/18 01:41:37;;;;;;;762.97;704.67;;;-3.90;99.90;;;;;;4997909;28;20530;-80
2023/01/18 01:44:42;;;;;;;764.58;704.38;;;-3.70;99.90;;;;;;4997839;28;20207;-80
2023/01/18 01:47:14;;;;;;;751.58;694.05;;;-3.50;99.90;;;;;;4997474;28;20205;-80
2023/01/18 01:49:46;;;;;;;767.40;707.15;;;-3.30;99.90;;;;;;4997300;28;20199;-80
2023/01/18 01:52:16;;;;;;;743.50;686.42;;;-3.30;99.90;;;;;;4997615;28;20211;-80
2023/01/18 01:54:47;;;;;;;711.25;654.83;;;-3.40;99.90;;;;;;4997957;28;20186;-80
2023/01/18 01:57:18;;;;;;;715.97;660.33;;;-3.40;99.90;;;;;;4998047;28;20646;-80
2023/01/18 01:59:50;;;;;;;721.17;664.95;;;-3.30;99.90;;;;;;4998091;28;20183;-80
2023/01/18 02:02:17;;;;;;;712.60;655.30;;;-3.60;99.90;;;;;;5001088;28;20681;-80
2023/01/18 02:04:52;;;;;;;705.95;650.42;;;-3.40;99.90;;;;;;5001834;28;20199;-80
2023/01/18 02:07:19;;;;;;;721.80;664.40;;;-3.30;99.90;;;;;;5002368;28;20202;-80
2023/01/18 02:09:46;;;;;;;711.03;653.95;;;-3.30;99.90;;;;;;5002111;28;20195;-80
2023/01/18 02:12:14;;;;;;;695.95;639.78;;;-3.30;99.90;;;;;;5001228;28;20215;-80
2023/01/18 02:14:42;;;;;;;705.20;650.05;;;-3.50;99.90;;;;;;5000802;28;20585;-80
2023/01/18 02:17:20;;;;;;;703.67;646.72;;;-3.40;99.90;;;;;;5002234;28;20195;-80
2023/01/18 02:20:09;;;;;;;705.45;649.65;;;-3.30;99.90;;;;;;5001567;28;20213;-80
2023/01/18 02:22:49;;;;;;;711.92;654.65;;;-3.20;99.90;;;;;;5000654;28;20206;-80
2023/01/18 02:25:43;;;;;;;724.70;667.47;;;-3.20;99.90;;;;;;5001159;28;20215;-80
2023/01/18 02:28:14;;;;;;;740.15;681.88;;;-3.10;99.90;;;;;;5001483;28;20191;-80
2023/01/18 02:30:45;;;;;;;750.00;691.40;;;-3.10;99.90;;;;;;5001479;28;20223;-80
2023/01/18 02:33:19;;;;;;;730.45;672.40;;;-3.30;99.90;;;;;;5001817;28;20207;-80
2023/01/18 02:35:50;;;;;;;706.97;648.97;;;-3.30;99.90;;;;;;5001602;28;20179;-79
2023/01/18 02:38:20;;;;;;;720.13;661.28;;;-3.40;99.90;;;;;;5001440;28;20673;-80
2023/01/18 02:40:59;;;;;;;719.67;659.22;;;-3.30;99.90;;;;;;5000782;28;20230;-80
2023/01/18 02:46:32;;;;;;;714.05;656.20;;;-3.10;99.90;;;;;;5000884;28;20234;-80
2023/01/18 02:49:03;;;;;;;726.53;668.83;;;-3.30;99.90;;;;;;5001151;28;20253;-80
2023/01/18 02:51:29;;;;;;;731.90;673.13;;;-3.40;99.90;;;;;;5001019;28;20218;-80
2023/01/18 02:53:57;;;;;;;717.38;659.80;;;-3.40;99.90;;;;;;5001154;28;20206;-80
2023/01/18 02:56:28;;;;;;;704.40;647.92;;;-3.40;99.90;;;;;;5000798;28;20207;-80
2023/01/18 02:58:59;;;;;;;720.15;662.30;;;-3.60;99.90;;;;;;5001219;28;20676;-81
2023/01/18 03:01:30;;;;;;;704.10;647.70;;;-3.20;99.90;;;;;;5000690;28;20223;-81
2023/01/18 03:03:59;;;;;;;715.10;656.83;;;-3.20;99.90;;;;;;5000633;28;20210;-80
2023/01/18 03:06:28;;;;;;;749.83;691.88;;;-3.20;99.90;;;;;;5000021;28;20211;-80
2023/01/18 03:08:58;;;;;;;757.10;699.65;;;-3.30;99.90;;;;;;5001270;28;20202;-80
2023/01/18 03:11:33;;;;;;;749.75;691.85;;;-3.40;99.90;;;;;;5000971;28;20222;-80
2023/01/18 03:14:13;;;;;;;760.53;701.58;;;-3.50;99.90;;;;;;5000580;28;20194;-80
2023/01/18 03:16:56;;;;;;;719.33;661.78;;;-3.50;99.90;;;;;;5000044;28;20202;-80
2023/01/18 03:22:17;;;;;;;727.72;667.03;;;-3.50;99.90;;;;;;5000584;28;20319;-79
2023/01/18 03:24:44;;;;;;;720.03;662.80;;;-3.60;99.90;;;;;;5000107;28;20203;-80
2023/01/18 03:35:30;;;;;;;719.03;661.58;;;-3.70;99.90;;;;;;5000961;28;20183;-80
2023/01/18 03:37:58;;;;;;;727.88;668.22;;;-3.80;99.90;;;;;;4999198;28;20199;-80
2023/01/18 03:40:28;;;;;;;728.28;668.97;;;-3.80;99.90;;;;;;4999812;28;20222;-81
2023/01/18 03:43:00;;;;;;;730.10;670.55;;;-3.80;99.90;;;;;;5000722;28;20203;-81
2023/01/18 03:45:32;;;;;;;726.08;666.83;;;-3.70;99.90;;;;;;4999419;28;20206;-80
2023/01/18 03:48:00;;;;;;;765.50;705.70;;;-3.80;99.90;;;;;;5001127;28;20205;-80
2023/01/18 03:50:36;;;;;;;756.60;697.22;;;-3.70;99.90;;;;;;5000985;28;20597;-80
2023/01/18 03:53:11;;;;;;;734.45;677.05;;;-3.80;99.90;;;;;;5000338;28;20198;-80
2023/01/18 03:55:42;;;;;;;731.70;674.00;;;-3.90;99.90;;;;;;5000862;28;20229;-80
2023/01/18 03:58:11;;;;;;;729.45;672.20;;;-3.90;99.90;;;;;;5001118;28;20191;-84
2023/01/18 04:00:40;;;;;;;706.40;648.65;;;-4.10;99.90;;;;;;4998396;28;20221;-81
2023/01/18 04:03:07;;;;;;;702.10;645.20;;;-4.10;99.90;;;;;;5000453;28;20195;-80
2023/01/18 04:05:34;;;;;;;692.97;636.30;;;-4.10;99.90;;;;;;4999507;28;20685;-80
2023/01/18 04:08:01;;;;;;;710.78;653.42;;;-4.50;99.90;;;;;;4999535;28;20573;-80
2023/01/18 04:10:27;;;;;;;736.67;674.78;;;-4.10;99.90;;;;;;5000657;28;20247;-80
2023/01/18 04:12:54;;;;;;;718.53;659.35;;;-3.90;99.90;;;;;;4999819;28;20207;-81
2023/01/18 04:15:21;;;;;;;703.60;645.45;;;-3.70;99.90;;;;;;4999773;28;20192;-80
2023/01/18 04:17:52;;;;;;;713.60;655.83;;;-3.70;99.90;;;;;;4980958;28;20191;-80
2023/01/18 04:20:19;;;;;;;732.00;674.92;;;-3.80;99.90;;;;;;4979659;28;20223;-80
2023/01/18 04:22:51;;;;;;;726.53;668.72;;;-3.90;99.90;;;;;;4979236;28;20658;-80
2023/01/18 04:25:18;;;;;;;741.60;684.15;;;-4.00;99.90;;;;;;4978448;28;20199;-80
2023/01/18 04:27:45;;;;;;;735.33;675.83;;;-3.90;99.90;;;;;;4979002;28;20606;-80
2023/01/18 04:30:12;;;;;;;774.10;714.05;;;-3.80;99.90;;;;;;4979843;28;20259;-80
2023/01/18 04:32:41;;;;;;;779.60;719.17;;;-3.80;99.90;;;;;;4980497;28;20199;-81
2023/01/18 04:35:10;;;;;;;777.15;717.33;;;-3.80;99.90;;;;;;4980622;28;20199;-80
2023/01/18 04:37:37;;;;;;;767.60;708.72;;;-3.80;99.90;;;;;;4978627;28;20206;-80
2023/01/18 04:40:04;;;;;;;778.78;718.00;;;-4.20;99.90;;;;;;4978578;28;20200;-80
2023/01/18 04:42:31;;;;;;;735.58;674.15;;;-3.80;99.90;;;;;;4980262;28;20378;-80
2023/01/18 04:44:58;;;;;;;738.17;677.58;;;-3.70;99.90;;;;;;4996959;28;20539;-80
2023/01/18 04:47:27;;;;;;;752.33;690.33;;;-3.70;99.90;;;;;;4999395;28;20219;-80
2023/01/18 04:49:54;;;;;;;747.10;685.63;;;-3.70;99.90;;;;;;4999152;28;20282;-80
2023/01/18 04:52:22;;;;;;;743.95;684.00;;;-3.70;99.90;;;;;;4996784;28;20203;-80
2023/01/18 04:54:49;;;;;;;739.15;679.90;;;-3.60;99.90;;;;;;4997763;28;20206;-80
2023/01/18 04:57:16;;;;;;;737.55;676.75;;;-3.60;99.90;;;;;;4997955;28;20555;-82
2023/01/18 04:59:44;;;;;;;729.45;671.22;;;-3.80;99.90;;;;;;4997857;28;20203;-80
2023/01/18 05:02:11;;;;;;;739.50;678.63;;;-3.80;99.90;;;;;;4997742;28;20586;-80
2023/01/18 05:04:38;;;;;;;706.85;647.50;;;-3.80;99.90;;;;;;4997387;28;20222;-78
2023/01/18 05:07:05;;;;;;;706.17;644.92;;;-3.90;99.90;;;;;;4997170;28;20211;-80
2023/01/18 05:09:33;;;;;;;723.25;662.83;;;-3.80;99.90;;;;;;4997498;28;20195;-80
2023/01/18 05:12:00;;;;;;;741.42;682.10;;;-3.80;99.90;;;;;;4996911;28;20251;-80
2023/01/18 05:14:27;;;;;;;739.20;679.97;;;-3.80;99.90;;;;;;4997394;28;20225;-80
2023/01/18 05:16:53;;;;;;;745.78;687.47;;;-3.80;99.90;;;;;;4997391;28;20191;-80
2023/01/18 05:19:20;;;;;;;760.03;697.78;;;-3.80;99.90;;;;;;4997213;28;20199;-80
2023/01/18 05:21:47;;;;;;;762.28;697.38;;;-3.80;99.90;;;;;;4998615;28;20215;-81
2023/01/18 05:24:14;;;;;;;735.70;670.92;;;-3.80;99.90;;;;;;4998592;28;20566;-82
2023/01/18 05:26:42;;;;;;;730.17;669.13;;;-3.70;99.90;;;;;;4997727;28;20215;-80
2023/01/18 05:29:08;;;;;;;731.13;671.22;;;-4.10;99.90;;;;;;4998615;28;20191;-79
2023/01/18 05:31:35;;;;;;;732.17;672.20;;;-3.70;99.90;;;;;;4997732;28;20222;-80
2023/01/18 05:34:02;;;;;;;724.92;665.17;;;-3.50;99.90;;;;;;4998194;28;20202;-80
2023/01/18 05:36:28;;;;;;;737.00;676.35;;;-3.70;99.90;;;;;;4996824;28;20206;-80
2023/01/18 05:38:55;;;;;;;747.08;685.95;;;-3.80;99.90;;;;;;4998105;28;20191;-80
2023/01/18 05:41:22;;;;;;;738.05;677.65;;;-3.70;99.90;;;;;;4998042;28;20590;-80
2023/01/18 05:43:50;;;;;;;748.80;687.42;;;-3.70;99.90;;;;;;4997933;28;20198;-80
2023/01/18 05:46:17;;;;;;;752.50;691.90;;;-3.80;99.90;;;;;;4997265;28;20215;-80
2023/01/18 05:48:44;;;;;;;753.65;692.50;;;-3.80;99.90;;;;;;4998013;28;20206;-80
2023/01/18 05:51:11;;;;;;;750.40;690.20;;;-3.80;99.90;;;;;;4997927;28;20226;-80
2023/01/18 05:53:38;;;;;;;766.13;704.22;;;-3.80;99.90;;;;;;4997670;28;20198;-81
2023/01/18 05:56:07;;;;;;;777.20;713.42;;;-3.70;99.90;;;;;;4986454;28;20253;-80
2023/01/18 05:58:34;;;;;;;774.60;710.50;;;-3.60;99.90;;;;;;4996893;28;20203;-80
2023/01/18 06:01:02;;;;;;;772.63;709.85;;;-3.70;99.90;;;;;;4996479;28;20215;-80
2023/01/18 06:03:28;;;;;;;766.22;702.03;;;-3.60;99.90;;;;;;4998234;28;20453;-79
2023/01/18 06:05:57;;;;;;;748.10;687.30;;;-3.50;99.90;;;;;;4997220;28;20195;-80
2023/01/18 06:08:23;;;;;;;741.75;678.88;;;-3.60;99.90;;;;;;4997061;28;20219;-80
2023/01/18 06:10:54;;;;;;;755.22;693.90;;;-3.50;99.90;;;;;;4998450;28;20221;-80
2023/01/18 06:13:21;;;;;;;743.65;679.90;;;-3.60;99.90;;;;;;4996942;28;20199;-83
2023/01/18 06:15:48;;;;;;;756.58;695.08;;;-3.70;99.90;;;;;;4998173;28;20206;-80
2023/01/18 06:18:16;;;;;;;729.95;667.45;;;-3.70;99.90;;;;;;4996003;28;20202;-80
2023/01/18 06:20:42;;;;;;;722.83;663.10;;;-3.70;99.90;;;;;;4997057;28;20215;-80
2023/01/18 06:23:09;;;;;;;715.05;654.47;;;-4.10;99.90;;;;;;4997292;28;20202;-81
2023/01/18 06:25:36;;;;;;;732.28;670.88;;;-3.80;99.90;;;;;;4997658;28;20203;-80
2023/01/18 06:28:03;;;;;;;737.08;676.65;;;-3.80;99.90;;;;;;4995960;28;20223;-80
2023/01/18 06:30:30;;;;;;;762.17;696.47;;;-3.70;99.90;;;;;;4997338;28;20222;-81
2023/01/18 06:32:57;;;;;;;749.70;686.53;;;-4.00;99.90;;;;;;4995653;28;20195;-80
2023/01/18 06:35:25;;;;;;;765.33;701.20;;;-3.60;99.90;;;;;;4995910;28;20805;-80
2023/01/18 06:37:55;;;;;;;781.10;716.13;;;-3.60;99.90;;;;;;4995689;28;20195;-78
2023/01/18 06:40:22;;;;;;;776.30;712.63;;;-3.60;99.90;;;;;;4995689;28;20211;-80
2023/01/18 06:42:52;;;;;;;771.70;708.45;;;-3.50;99.90;;;;;;4998146;28;20724;-82
2023/01/18 06:45:20;;;;;;;755.47;693.35;;;-3.80;99.90;;;;;;4996869;28;20206;-80
2023/01/18 06:47:47;;;;;;;762.97;696.13;;;-3.40;99.90;;;;;;4997814;28;20266;-80
2023/01/18 06:50:14;;;;;;;747.03;684.00;;;-3.30;99.90;;;;;;4999747;28;20222;-80
2023/01/18 06:52:43;;;;;;;754.85;689.45;;;-3.20;99.90;;;;;;4999868;28;20191;-80
2023/01/18 06:55:10;;;;;;;758.90;694.45;;;-3.00;99.90;;;;;;4999304;28;20203;-80
2023/01/18 06:57:37;;;;;;;756.13;688.33;;;-2.90;99.90;;;;;;4997428;28;20187;-80
2023/01/18 07:00:05;;;;;;;753.05;687.45;;;-2.80;99.90;;;;;;4999092;28;20199;-80
2023/01/18 07:02:32;;;;;;;753.97;689.05;;;-2.70;99.90;;;;;;4998792;28;20199;-79
2023/01/18 07:04:59;;;;;;;744.30;679.50;;;-2.70;99.90;;;;;;4998413;28;20715;-80
2023/01/18 07:07:25;;;;;;;776.45;709.50;;;-2.70;99.90;;;;;;4998791;28;20215;-79
2023/01/18 07:09:54;;;;;;;775.97;709.92;;;-2.70;99.90;;;;;;4998420;28;20282;-79
2023/01/18 07:12:21;;;;;;;756.08;688.20;;;-2.70;99.90;;;;;;4999320;28;20202;-79
2023/01/18 07:14:47;;;;;;;780.03;711.88;;;-2.70;99.90;;;;;;4998661;28;20207;-79
2023/01/18 07:17:14;;;;;;;808.63;739.90;;;-2.70;99.90;;;;;;4993881;28;20187;-80
2023/01/18 07:19:41;;;;;;;810.38;744.10;;;-2.70;99.90;;;;;;4996653;28;20195;-79
2023/01/18 07:22:08;;;;;;;823.47;756.15;;;-2.70;99.90;;;;;;4999560;28;20210;-80
2023/01/18 07:24:34;;;;;;;819.70;751.78;;;-2.70;99.90;;;;;;5000124;28;20215;-80
2023/01/18 07:27:03;;;;;;;820.50;751.90;;;-2.80;99.90;;;;;;4999879;28;20211;-80
2023/01/18 07:29:29;;;;;;;786.05;720.00;;;-2.70;99.90;;;;;;5000338;28;20191;-80
2023/01/18 07:31:56;;;;;;;766.35;699.75;;;-2.70;99.90;;;;;;4999911;28;20595;-80
2023/01/18 07:34:23;;;;;;;771.58;704.92;;;-2.70;99.90;;;;;;4999088;28;20195;-80
2023/01/18 07:36:50;;;;;;;765.30;697.65;;;-2.60;99.90;;;;;;4998765;28;20203;-80
2023/01/18 07:39:16;;;;;;;778.13;709.38;;;-2.70;99.90;;;;;;4998681;28;20202;-80
2023/01/18 07:41:43;;;;;;;753.75;687.83;;;-2.60;99.90;;;;;;4997734;28;20219;-80
2023/01/18 07:44:12;;;;;;;751.50;685.55;;;-2.50;99.90;;;;;;4998374;28;20203;-80
2023/01/18 07:46:41;;;;;;;746.05;681.00;;;-2.50;99.90;;;;;;4997547;28;20575;-81
2023/01/18 07:49:08;;;;;;;763.60;696.75;;;-2.40;99.90;;;;;;4999116;28;20199;-80
2023/01/18 07:51:35;;;;;;;767.25;701.28;;;-2.40;99.90;;;;;;4997484;28;20723;-80
2023/01/18 07:54:01;;;;;;;753.92;688.17;;;-2.30;99.90;;;;;;4998917;28;20195;-80
2023/01/18 07:56:28;;;;;;;779.28;712.65;;;-2.30;99.90;;;;;;4998699;28;20662;-80
2023/01/18 07:58:55;;;;;;;796.22;727.40;;;-2.20;99.90;;;;;;4997388;28;20266;-79
2023/01/18 08:01:24;;;;;;;794.15;725.92;;;-2.30;99.90;;;;;;4997396;28;20211;-80
2023/01/18 08:03:53;;;;;;;810.97;741.92;;;-2.30;99.90;;;;;;4996726;28;20195;-79
2023/01/18 08:06:21;;;;;;;789.53;722.22;;;-2.20;99.90;;;;;;4996730;28;20199;-80
2023/01/18 08:08:47;;;;;;;770.25;703.63;;;-2.20;99.90;;;;;;4997635;28;20539;-79
2023/01/18 08:11:14;;;;;;;759.60;692.60;;;-2.10;99.90;;;;;;4997149;28;20310;-80
2023/01/18 08:13:41;;;;;;;756.78;690.97;;;-2.10;99.90;;;;;;4993330;28;20192;-80
2023/01/18 08:16:11;;;;;;;764.53;697.08;;;-2.00;99.90;;;;;;4996897;28;20207;-79
2023/01/18 08:18:39;;;;;;;766.00;698.83;;;-2.10;99.90;;;;;;4997278;28;20191;-80
2023/01/18 08:21:09;;;;;;;777.67;708.15;;;-2.10;99.90;;;;;;4998522;28;20736;-80
2023/01/18 08:23:38;;;;;;;781.72;711.45;;;-2.10;99.90;;;;;;4998179;28;20191;-78
2023/01/18 08:26:06;;;;;;;782.40;710.33;;;-2.10;99.90;;;;;;4997578;28;20928;-78
2023/01/18 08:28:33;;;;;;;772.38;702.92;;;-2.20;99.90;;;;;;4998557;28;20477;-80
2023/01/18 08:31:09;;;;;;;774.30;705.15;;;-2.10;99.90;;;;;;4997742;28;20231;-80
2023/01/18 08:33:39;;;;;;;781.28;712.17;;;-2.00;99.90;;;;;;4998211;28;20202;-80
2023/01/18 08:36:10;;;;;;;782.08;711.28;;;-1.90;99.90;;;;;;4997171;28;20211;-80
2023/01/18 08:38:37;;;;;;;763.20;693.20;;;-1.90;99.90;;;;;;4998523;28;20198;-80
2023/01/18 08:41:04;;;;;;;798.22;728.33;;;-1.80;99.90;;;;;;4997974;28;20219;-80
2023/01/18 08:43:30;;;;;;;797.53;727.60;;;-1.80;99.90;;;;;;4998669;28;20574;-80
2023/01/18 08:45:58;;;;;;;806.65;736.85;;;-1.80;99.90;;;;;;4998206;28;20622;-80
2023/01/18 08:48:25;;;;;;;795.70;725.35;;;-1.80;99.90;;;;;;4997751;28;20227;-80
2023/01/18 08:50:53;;;;;;;807.78;738.72;;;-1.80;99.90;;;;;;4998045;28;20225;-80
2023/01/18 08:53:19;;;;;;;798.67;728.97;;;-1.80;99.90;;;;;;4998472;28;20202;-80
2023/01/18 08:55:46;;;;;;;793.45;723.47;;;-1.70;99.90;;;;;;4998066;28;20202;-81
2023/01/18 08:58:13;;;;;;;782.45;713.47;;;-1.70;99.90;;;;;;4997495;28;20234;-80
2023/01/18 09:00:40;;;;;;;785.03;715.03;;;-1.60;99.90;;;;;;4997600;28;20219;-80
2023/01/18 09:03:06;;;;;;;784.08;714.65;;;-1.50;99.90;;;;;;4997791;28;20226;-80
2023/01/18 09:05:35;;;;;;;778.67;707.83;;;-1.40;99.90;;;;;;4997549;28;20206;-80
2023/01/18 09:08:03;;;;;;;783.70;711.92;;;-1.30;99.90;;;;;;4997465;28;20211;-80
2023/01/18 09:10:31;;;;;;;772.17;701.75;;;-1.20;99.90;;;;;;4997491;28;20226;-80
2023/01/18 09:12:58;;;;;;;783.90;712.05;;;-1.10;99.90;;;;;;4997905;28;20203;-80
2023/01/18 09:15:25;;;;;;;786.17;713.70;;;-1.00;99.90;;;;;;4997582;28;20199;-80
2023/01/18 09:17:52;;;;;;;791.03;718.70;;;-0.90;99.90;;;;;;4997136;28;20662;-80
2023/01/18 09:20:19;;;;;;;801.10;726.15;;;-0.80;99.90;;;;;;4997496;28;20219;-79
2023/01/18 09:22:47;;;;;;;824.85;749.97;;;-0.80;99.90;;;;;;4997281;28;20202;-80
2023/01/18 09:25:17;;;;;;;818.00;741.75;;;-0.60;99.90;;;;;;4997904;28;20202;-80
2023/01/18 09:27:45;;;;;;;819.13;743.80;;;-0.60;99.90;;;;;;4997502;28;20223;-80
2023/01/18 09:30:14;;;;;;;829.35;753.78;;;-0.50;99.90;;;;;;4996588;28;20231;-80
2023/01/18 09:32:41;;;;;;;826.95;752.00;;;-0.40;99.90;;;;;;4997769;28;20210;-80
2023/01/18 09:35:08;;;;;;;795.05;721.42;;;-0.40;99.90;;;;;;4997293;28;20195;-80
2023/01/18 09:37:35;;;;;;;793.03;718.83;;;-0.40;99.90;;;;;;4996518;28;20199;-80
2023/01/18 09:40:02;;;;;;;793.75;720.80;;;-0.30;99.90;;;;;;4997070;28;20205;-80
2023/01/18 09:42:35;;;;;;;801.65;728.67;;;-0.30;99.90;;;;;;4997180;28;20198;-80
2023/01/18 09:45:04;;;;;;;797.47;723.45;;;-0.20;99.90;;;;;;4997196;28;20292;-80
2023/01/18 09:47:34;;;;;;;782.58;712.97;;;-0.20;99.90;;;;;;4996660;28;20732;-80
2023/01/18 09:50:04;;;;;;;781.20;709.13;;;-0.20;99.90;;;;;;4996951;28;20194;-80
2023/01/18 09:52:42;;;;;;;800.60;727.70;;;-0.20;99.90;;;;;;4997300;28;20203;-80
2023/01/18 09:55:16;;;;;;;767.72;696.42;;;-0.10;99.90;;;;;;4996767;28;20195;-80
2023/01/18 09:58:00;;;;;;;761.58;691.70;;;-0.10;99.90;;;;;;4996448;28;20197;-80
2023/01/18 10:00:29;;;;;;;749.42;680.63;;;0.00;99.90;;;;;;4996832;28;20215;-80
2023/01/18 10:03:00;;;;;;;755.70;687.13;;;-0.10;99.90;;;;;;4996356;28;20230;-80
2023/01/18 10:05:30;;;;;;;761.03;693.65;;;-0.10;99.90;;;;;;4996482;28;20454;-80
2023/01/18 10:08:06;;;;;;;756.30;688.15;;;0.00;99.90;;;;;;4997080;28;20219;-80
2023/01/18 10:10:37;;;;;;;759.03;691.97;;;0.00;99.90;;;;;;4996653;28;20222;-80
2023/01/18 10:13:22;;;;;;;748.07;681.60;;;0.00;99.90;;;;;;4996562;28;20537;-79
2023/01/18 10:15:49;;;;;;;734.43;668.43;;;0.10;99.90;;;;;;4996836;28;20836;-80
2023/01/18 10:18:17;;;;;;;720.60;654.27;;;0.00;99.90;;;;;;4996652;28;20476;-80
2023/01/18 10:20:50;;;;;;;739.38;674.72;;;0.00;99.90;;;;;;4996989;28;20478;-80
2023/01/18 10:23:24;;;;;;;732.20;669.33;;;0.10;99.90;;;;;;4998935;28;20195;-80
2023/01/18 10:25:55;;;;;;;707.63;646.67;;;0.00;99.90;;;;;;5002713;28;20249;-80
2023/01/18 10:28:32;;;;;;;700.72;640.72;;;0.10;99.90;;;;;;5002265;28;20206;-80
2023/01/18 10:31:15;;;;;;;697.88;638.92;;;0.10;99.90;;;;;;5002493;28;20937;-80
2023/01/18 10:33:44;;;;;;;672.58;616.03;;;0.20;99.90;;;;;;5000194;28;20199;-82
2023/01/18 10:36:14;;;;;;;665.93;609.50;;;0.20;99.90;;;;;;5002656;28;20214;-81
2023/01/18 10:38:41;;;;;;;678.10;620.23;;;0.20;99.90;;;;;;4999884;28;20446;-80
2023/01/18 10:41:17;;;;;;;716.53;655.97;;;0.20;99.90;;;;;;5000148;28;20469;-79
2023/01/18 10:43:45;;;;;;;712.28;652.40;;;0.20;99.90;;;;;;4999265;28;20210;-80
2023/01/18 10:46:15;;;;;;;713.03;654.47;;;0.10;99.90;;;;;;5000478;28;20205;-80
2023/01/18 10:48:45;;;;;;;771.00;710.08;;;0.10;99.90;;;;;;5000847;28;20215;-80
2023/01/18 10:51:26;;;;;;;735.47;677.78;;;0.10;99.90;;;;;;5000269;28;20222;-80
2023/01/18 10:53:53;;;;;;;704.60;647.47;;;0.10;99.90;;;;;;5000852;28;20206;-80
2023/01/18 10:56:23;;;;;;;714.65;657.42;;;0.10;99.90;;;;;;5000746;28;20195;-80
2023/01/18 10:58:57;;;;;;;699.05;642.85;;;0.10;99.90;;;;;;5001522;28;20269;-80
2023/01/18 11:01:27;;;;;;;722.53;663.60;;;0.10;99.90;;;;;;5001108;28;20252;-80
2023/01/18 11:03:55;;;;;;;748.65;685.70;;;0.00;99.90;;;;;;5000259;28;20203;-80
2023/01/18 11:06:24;;;;;;;761.28;697.47;;;0.10;99.90;;;;;;4999979;28;20203;-80
2023/01/18 11:08:52;;;;;;;750.30;685.50;;;0.00;99.90;;;;;;5000495;28;20309;-80
2023/01/18 11:12:32;;;;;;;758.08;691.33;;;0.10;99.90;;;;;;5000316;28;20225;-80
2023/01/18 11:14:29;;;;;;;768.55;701.20;;;0.10;99.90;;;;;;4999815;28;20682;-82
2023/01/18 11:17:02;;;;;;;768.58;700.63;;;0.10;99.90;;;;;;5000258;28;20199;-80
2023/01/18 11:19:29;;;;;;;777.22;709.92;;;0.20;99.90;;;;;;5000385;28;20202;-80
2023/01/18 11:21:56;;;;;;;788.25;719.15;;;0.20;99.90;;;;;;5000172;28;20219;-80
2023/01/18 11:24:27;;;;;;;787.70;719.33;;;0.20;99.90;;;;;;4999890;28;20210;-80
2023/01/18 11:26:57;;;;;;;804.38;734.38;;;0.20;99.90;;;;;;4999381;28;20195;-80
2023/01/18 11:29:29;;;;;;;819.75;748.17;;;0.30;99.90;;;;;;4999822;28;20219;-81
2023/01/18 11:32:01;;;;;;;796.20;728.00;;;0.30;99.90;;;;;;4999694;28;20223;-80
2023/01/18 11:34:30;;;;;;;795.20;726.22;;;0.30;99.90;;;;;;4999804;28;20461;-81
2023/01/18 11:36:58;;;;;;;813.63;744.78;;;0.40;99.90;;;;;;5000368;28;20215;-80
2023/01/18 11:39:31;;;;;;;761.40;698.75;;;0.40;99.90;;;;;;4997894;28;20456;-80
2023/01/18 11:42:16;;;;;;;703.80;645.83;;;0.30;99.90;;;;;;4995957;28;20215;-80
2023/01/18 11:45:11;;;;;;;693.37;637.03;;;0.50;99.90;;;;;;4998282;28;20669;-81
2023/01/18 11:47:51;;;;;;;697.60;642.85;;;0.40;99.90;;;;;;4998212;28;20458;-80
2023/01/18 11:50:31;;;;;;;679.90;628.00;;;0.60;99.90;;;;;;4999942;28;20219;-81
2023/01/18 11:53:09;;;;;;;661.47;611.27;;;0.70;99.90;;;;;;4999657;28;20190;-80
2023/01/18 11:55:42;;;;;;;638.77;591.10;;;0.70;99.90;;;;;;4999718;28;20464;-81
2023/01/18 11:58:21;;;;;;;635.70;588.28;;;0.60;99.90;;;;;;4999035;28;20626;-81
2023/01/18 12:00:59;;;;;;;619.80;574.37;;;0.70;99.90;;;;;;4999760;28;20219;-81
2023/01/18 12:03:46;;;;;;;626.20;581.07;;;0.90;99.90;;;;;;4999966;28;20465;-80
2023/01/18 12:06:22;;;;;;;637.53;589.73;;;0.90;99.90;;;;;;4999499;28;20465;-80
2023/01/18 12:09:02;;;;;;;643.70;596.15;;;0.90;99.90;;;;;;5000086;28;20477;-80
2023/01/18 12:11:41;;;;;;;642.30;594.40;;;0.90;99.90;;;;;;4999492;28;20215;-80
2023/01/18 12:14:16;;;;;;;628.10;582.30;;;1.10;99.90;;;;;;4999476;28;20461;-82
2023/01/18 12:16:59;;;;;;;649.23;604.17;;;1.20;99.90;;;;;;4997435;28;20449;-79
2023/01/18 12:19:49;;;;;;;595.10;557.50;;;1.30;99.90;;;;;;4999158;28;20778;-79
2023/01/18 12:22:43;;;;;;;541.83;511.00;;;1.70;99.90;;;;;;4999529;28;20478;-80
2023/01/18 12:25:25;;;;;;;440.07;418.53;;;2.00;99.90;;;;;;4999324;28;20826;-80
2023/01/18 12:27:59;;;;;;;317.33;302.97;;;2.40;99.90;;;;;;4998677;28;20949;-81
2023/01/18 12:30:43;;;;;;;90.67;84.87;;;3.00;99.90;;;;;;4999016;28;20485;-80
2023/01/18 12:33:24;;;;;;;43.00;39.73;;;3.60;99.90;;;;;;4997040;28;20521;-80
2023/01/18 12:36:07;;;;;;;23.23;20.93;;;4.00;99.90;;;;;;4999641;28;20496;-80
2023/01/18 12:38:35;;;;;;;20.57;13.60;;;3.70;99.90;;;;;;5000824;28;20449;-81
2023/01/18 12:41:28;;;;;;;18.23;12.50;;;3.30;99.90;;;;;;5000865;28;20473;-80
2023/01/18 12:44:14;;;;;;;24.00;11.60;;;2.70;99.90;;;;;;4999745;28;20458;-80
2023/01/18 12:46:46;;;;;;;22.33;12.70;;;2.50;99.90;;;;;;4998947;28;20481;-79
2023/01/18 12:49:17;;;;;;;16.80;10.90;;;2.20;99.90;;;;;;4999978;28;20468;-78
2023/01/18 12:51:46;;;;;;;16.98;9.98;;;2.00;99.90;;;;;;4981008;28;20537;-83
2023/01/18 12:54:20;;;;;;;19.77;11.80;;;1.90;99.90;;;;;;5001669;28;20454;-82
2023/01/18 12:56:52;;;;;;;16.60;10.23;;;1.80;99.90;;;;;;5001553;28;20446;-79
2023/01/18 12:59:24;;;;;;;18.30;10.90;;;1.60;99.90;;;;;;4998551;28;20522;-81